createdAt,value
2018-12-25T00:00:26.024Z,3.80
2018-12-25T00:02:55.006Z,3.80
2018-12-25T00:05:23.931Z,3.80
2018-12-25T00:07:52.867Z,3.80
2018-12-25T00:10:21.779Z,3.70
2018-12-25T00:12:50.737Z,3.70
2018-12-25T00:15:19.635Z,3.80
2018-12-25T00:17:48.655Z,3.90
2018-12-25T00:20:17.571Z,3.90
2018-12-25T00:22:46.786Z,4.00
2018-12-25T00:25:15.767Z,3.90
2018-12-25T00:27:44.735Z,4.00
2018-12-25T00:30:13.658Z,4.00
2018-12-25T00:32:42.615Z,4.10
2018-12-25T00:35:11.615Z,4.00
2018-12-25T00:37:40.483Z,4.10
2018-12-25T00:40:09.447Z,4.10
2018-12-25T00:42:40.862Z,4.20
2018-12-25T00:45:09.867Z,4.20
2018-12-25T00:47:38.847Z,4.20
2018-12-25T00:50:08.126Z,4.20
2018-12-25T00:52:36.988Z,4.20
2018-12-25T00:55:06.159Z,4.30
2018-12-25T00:57:35.514Z,4.30
2018-12-25T01:00:04.784Z,4.30
2018-12-25T01:02:33.747Z,4.30
2018-12-25T01:05:02.755Z,4.30
2018-12-25T01:07:31.760Z,4.40
2018-12-25T01:10:00.715Z,4.40
2018-12-25T01:12:29.990Z,4.40
2018-12-25T01:14:59.194Z,4.40
2018-12-25T01:17:28.132Z,4.50
2018-12-25T01:19:57.355Z,4.50
2018-12-25T01:22:26.631Z,4.50
2018-12-25T01:24:55.560Z,4.50
2018-12-25T01:27:24.391Z,4.50
2018-12-25T01:29:53.332Z,4.50
2018-12-25T01:32:22.358Z,4.60
2018-12-25T01:34:51.533Z,4.60
2018-12-25T01:37:20.767Z,4.60
2018-12-25T01:39:49.749Z,4.60
2018-12-25T01:42:18.675Z,4.60
2018-12-25T01:44:48.070Z,4.50
2018-12-25T01:47:17.307Z,4.60
2018-12-25T01:49:46.305Z,4.50
2018-12-25T01:52:15.237Z,4.50
2018-12-25T01:54:44.562Z,4.50
2018-12-25T01:57:13.470Z,4.50
2018-12-25T01:59:42.431Z,4.60
2018-12-25T02:02:11.661Z,4.60
2018-12-25T02:04:40.635Z,4.50
2018-12-25T02:07:09.639Z,4.50
2018-12-25T02:09:38.590Z,4.50
2018-12-25T02:12:07.519Z,4.60
2018-12-25T02:14:36.483Z,4.60
2018-12-25T02:17:05.522Z,4.50
2018-12-25T02:19:40.227Z,4.50
2018-12-25T02:22:05.084Z,4.50
2018-12-25T02:24:34.291Z,4.50
2018-12-25T02:27:03.598Z,4.50
2018-12-25T02:29:33.151Z,4.60
2018-12-25T02:32:02.230Z,4.60
2018-12-25T02:34:31.182Z,4.60
2018-12-25T02:37:00.164Z,4.50
2018-12-25T02:39:29.405Z,4.60
2018-12-25T02:41:58.311Z,4.60
2018-12-25T02:44:27.567Z,4.60
2018-12-25T02:46:56.508Z,4.60
2018-12-25T02:49:25.480Z,4.60
2018-12-25T02:51:54.740Z,4.60
2018-12-25T02:54:23.771Z,4.60
2018-12-25T02:56:52.718Z,4.60
2018-12-25T02:59:21.654Z,4.60
2018-12-25T03:01:50.833Z,4.60
2018-12-25T03:04:20.042Z,4.60
2018-12-25T03:06:49.421Z,4.70
2018-12-25T03:09:18.406Z,4.70
2018-12-25T03:11:47.335Z,4.70
2018-12-25T03:14:16.289Z,4.70
2018-12-25T03:16:45.230Z,4.80
2018-12-25T03:19:14.150Z,4.80
2018-12-25T03:21:43.161Z,4.70
2018-12-25T03:24:12.082Z,4.70
2018-12-25T03:26:41.043Z,4.70
2018-12-25T03:29:10.309Z,4.70
2018-12-25T03:31:39.309Z,4.70
2018-12-25T03:34:09.086Z,4.70
2018-12-25T03:36:38.139Z,4.80
2018-12-25T03:39:07.738Z,4.70
2018-12-25T03:41:36.802Z,4.70
2018-12-25T03:44:05.784Z,4.70
2018-12-25T03:46:34.736Z,4.70
2018-12-25T03:49:04.007Z,4.70
2018-12-25T03:51:33.369Z,4.70
2018-12-25T03:54:02.399Z,4.80
2018-12-25T03:56:31.416Z,4.70
2018-12-25T03:59:00.731Z,4.80
2018-12-25T04:01:29.986Z,4.80
2018-12-25T04:04:01.284Z,4.80
2018-12-25T04:06:30.295Z,4.80
2018-12-25T04:08:59.206Z,4.70
2018-12-25T04:11:28.332Z,4.70
2018-12-25T04:13:57.895Z,4.70
2018-12-25T04:16:26.871Z,4.70
2018-12-25T04:18:55.802Z,4.70
2018-12-25T04:21:24.763Z,4.70
2018-12-25T04:23:53.703Z,4.70
2018-12-25T04:26:22.659Z,4.70
2018-12-25T04:28:51.589Z,4.70
2018-12-25T04:31:20.520Z,4.70
2018-12-25T04:33:49.468Z,4.80
2018-12-25T04:36:18.446Z,4.80
2018-12-25T04:38:47.444Z,4.70
2018-12-25T04:41:16.472Z,4.70
2018-12-25T04:43:45.506Z,4.60
2018-12-25T04:46:14.379Z,4.60
2018-12-25T04:48:43.318Z,4.60
2018-12-25T04:51:12.313Z,4.60
2018-12-25T04:53:41.264Z,4.60
2018-12-25T04:56:10.234Z,4.60
2018-12-25T04:58:39.174Z,4.70
2018-12-25T05:01:08.015Z,4.60
2018-12-25T05:03:37.099Z,4.70
2018-12-25T05:06:06.319Z,4.70
2018-12-25T05:08:35.299Z,4.70
2018-12-25T05:11:04.378Z,4.70
2018-12-25T05:13:33.419Z,4.70
2018-12-25T05:16:02.518Z,4.70
2018-12-25T05:18:31.543Z,4.70
2018-12-25T05:21:00.456Z,4.70
2018-12-25T05:23:29.402Z,4.60
2018-12-25T05:25:58.314Z,4.50
2018-12-25T05:28:27.307Z,4.50
2018-12-25T05:30:56.226Z,4.50
2018-12-25T05:33:25.288Z,4.50
2018-12-25T05:35:54.199Z,4.50
2018-12-25T05:38:23.195Z,4.50
2018-12-25T05:40:52.118Z,4.50
2018-12-25T05:43:21.407Z,4.50
2018-12-25T05:45:50.333Z,4.40
2018-12-25T05:48:19.362Z,4.40
2018-12-25T05:50:48.304Z,4.40
2018-12-25T05:53:17.666Z,4.40
2018-12-25T05:55:46.534Z,4.40
2018-12-25T05:58:15.527Z,4.40
2018-12-25T06:00:44.435Z,4.40
2018-12-25T06:03:13.367Z,4.40
2018-12-25T06:05:42.363Z,4.40
2018-12-25T06:08:11.478Z,4.40
2018-12-25T06:10:40.423Z,4.40
2018-12-25T06:13:09.637Z,4.40
2018-12-25T06:15:39.019Z,4.40
2018-12-25T06:18:07.930Z,4.40
2018-12-25T06:20:36.840Z,4.50
2018-12-25T06:23:06.122Z,4.50
2018-12-25T06:25:35.056Z,4.40
2018-12-25T06:28:04.019Z,4.50
2018-12-25T06:30:33.265Z,4.50
2018-12-25T06:33:02.115Z,4.50
2018-12-25T06:35:31.088Z,4.50
2018-12-25T06:38:00.066Z,4.50
2018-12-25T06:40:29.035Z,4.50
2018-12-25T06:42:57.960Z,4.60
2018-12-25T06:45:26.933Z,4.60
2018-12-25T06:47:56.139Z,4.60
2018-12-25T06:50:25.403Z,4.60
2018-12-25T06:52:54.651Z,4.60
2018-12-25T06:55:23.644Z,4.60
2018-12-25T06:57:52.829Z,4.60
2018-12-25T07:00:22.029Z,4.60
2018-12-25T07:02:50.963Z,4.60
2018-12-25T07:05:20.214Z,4.70
2018-12-25T07:07:49.146Z,4.70
2018-12-25T07:10:18.434Z,4.70
2018-12-25T07:12:47.383Z,4.80
2018-12-25T07:15:16.309Z,4.80
2018-12-25T07:17:45.254Z,4.80
2018-12-25T07:20:14.102Z,4.80
2018-12-25T07:22:43.320Z,4.80
2018-12-25T07:25:12.273Z,4.80
2018-12-25T07:27:41.203Z,4.80
2018-12-25T07:30:10.127Z,4.80
2018-12-25T07:32:39.330Z,4.80
2018-12-25T07:35:08.516Z,4.80
2018-12-25T07:37:37.566Z,4.80
2018-12-25T07:40:06.639Z,4.90
2018-12-25T07:42:35.587Z,4.90
2018-12-25T07:45:04.948Z,4.90
2018-12-25T07:47:33.890Z,5.00
2018-12-25T07:50:03.143Z,4.90
2018-12-25T07:52:32.358Z,4.90
2018-12-25T07:55:01.312Z,5.00
2018-12-25T07:57:30.279Z,4.90
2018-12-25T07:59:59.319Z,5.00
2018-12-25T08:02:28.268Z,4.90
2018-12-25T08:04:57.192Z,4.90
2018-12-25T08:07:26.142Z,4.90
2018-12-25T08:09:55.056Z,5.00
2018-12-25T08:12:24.053Z,5.00
2018-12-25T08:14:52.935Z,5.00
2018-12-25T08:17:21.938Z,5.00
2018-12-25T08:19:50.868Z,5.00
2018-12-25T08:22:20.007Z,5.00
2018-12-25T08:24:48.994Z,5.00
2018-12-25T08:27:18.286Z,5.00
2018-12-25T08:29:47.500Z,4.90
2018-12-25T08:32:16.811Z,4.90
2018-12-25T08:34:45.866Z,4.90
2018-12-25T08:37:14.807Z,4.90
2018-12-25T08:39:43.722Z,4.90
2018-12-25T08:42:12.715Z,4.90
2018-12-25T08:44:41.919Z,4.90
2018-12-25T08:47:11.677Z,4.90
2018-12-25T08:49:41.179Z,4.90
2018-12-25T08:52:10.092Z,4.90
2018-12-25T08:54:39.144Z,5.00
2018-12-25T08:57:08.408Z,5.00
2018-12-25T08:59:37.406Z,5.10
2018-12-25T09:02:06.715Z,5.20
2018-12-25T09:04:35.712Z,5.20
2018-12-25T09:07:04.611Z,5.30
2018-12-25T09:09:33.536Z,5.40
2018-12-25T09:12:02.750Z,5.50
2018-12-25T09:14:31.710Z,5.50
2018-12-25T09:17:00.915Z,5.50
2018-12-25T09:19:29.862Z,5.50
2018-12-25T09:21:58.834Z,5.60
2018-12-25T09:24:27.774Z,5.60
2018-12-25T09:26:56.790Z,5.60
2018-12-25T09:29:25.735Z,5.60
2018-12-25T09:31:54.678Z,5.70
2018-12-25T09:34:24.699Z,5.70
2018-12-25T09:36:53.759Z,5.70
2018-12-25T09:39:23.060Z,5.70
2018-12-25T09:41:52.358Z,5.70
2018-12-25T09:44:21.310Z,5.70
2018-12-25T09:46:50.235Z,5.70
2018-12-25T09:49:19.543Z,5.70
2018-12-25T09:51:54.516Z,5.70
2018-12-25T09:54:19.038Z,5.70
2018-12-25T09:56:48.019Z,5.70
2018-12-25T09:59:16.998Z,5.70
2018-12-25T10:01:45.911Z,5.80
2018-12-25T10:04:14.850Z,5.70
2018-12-25T10:06:43.991Z,5.80
2018-12-25T10:09:12.943Z,5.90
2018-12-25T10:11:44.651Z,6.00
2018-12-25T10:14:12.851Z,6.00
2018-12-25T10:16:41.903Z,6.10
2018-12-25T10:19:11.223Z,6.10
2018-12-25T10:21:40.181Z,6.10
2018-12-25T10:24:09.103Z,6.20
2018-12-25T10:26:38.101Z,6.20
2018-12-25T10:29:06.934Z,6.20
2018-12-25T10:31:35.894Z,6.30
2018-12-25T10:34:05.002Z,6.30
2018-12-25T10:36:33.939Z,6.30
2018-12-25T10:39:04.726Z,6.40
2018-12-25T10:41:33.686Z,6.50
2018-12-25T10:44:02.889Z,6.60
2018-12-25T10:46:32.274Z,6.60
2018-12-25T10:49:01.203Z,6.60
2018-12-25T10:51:30.241Z,6.60
2018-12-25T10:53:59.147Z,6.60
2018-12-25T10:56:28.077Z,6.60
2018-12-25T10:58:56.998Z,6.50
2018-12-25T11:01:29.114Z,6.50
2018-12-25T11:03:58.118Z,6.50
2018-12-25T11:06:27.366Z,6.50
2018-12-25T11:08:56.399Z,6.50
2018-12-25T11:11:25.505Z,6.60
2018-12-25T11:13:54.430Z,6.70
2018-12-25T11:16:23.359Z,6.80
2018-12-25T11:18:52.295Z,6.80
2018-12-25T11:21:21.533Z,6.80
2018-12-25T11:23:50.490Z,6.80
2018-12-25T11:26:19.723Z,6.90
2018-12-25T11:28:48.978Z,6.90
2018-12-25T11:31:17.914Z,6.80
2018-12-25T11:33:46.850Z,6.80
2018-12-25T11:36:16.099Z,6.80
2018-12-25T11:38:45.063Z,6.80
2018-12-25T11:41:13.997Z,6.70
2018-12-25T11:43:43.035Z,6.80
2018-12-25T11:46:11.938Z,6.80
2018-12-25T11:48:41.143Z,6.80
2018-12-25T11:51:10.058Z,6.70
2018-12-25T11:53:39.008Z,6.70
2018-12-25T11:56:07.996Z,6.70
2018-12-25T11:58:37.323Z,6.70
2018-12-25T12:01:06.236Z,6.80
2018-12-25T12:03:35.171Z,6.80
2018-12-25T12:06:04.424Z,6.80
2018-12-25T12:08:33.377Z,6.80
2018-12-25T12:11:02.230Z,6.70
2018-12-25T12:13:31.266Z,6.70
2018-12-25T12:16:00.213Z,6.80
2018-12-25T12:18:29.459Z,6.80
2018-12-25T12:20:58.390Z,6.80
2018-12-25T12:23:27.343Z,6.70
2018-12-25T12:25:56.296Z,6.70
2018-12-25T12:28:25.246Z,6.70
2018-12-25T12:30:54.170Z,6.70
2018-12-25T12:33:23.043Z,6.70
2018-12-25T12:35:51.966Z,6.70
2018-12-25T12:38:20.902Z,6.80
2018-12-25T12:40:51.991Z,6.80
2018-12-25T12:43:21.039Z,6.80
2018-12-25T12:45:50.006Z,6.80
2018-12-25T12:48:19.134Z,6.80
2018-12-25T12:50:48.231Z,6.70
2018-12-25T12:53:17.439Z,6.80
2018-12-25T12:55:46.431Z,6.80
2018-12-25T12:58:15.349Z,6.80
2018-12-25T13:00:44.298Z,6.80
2018-12-25T13:03:13.204Z,6.70
2018-12-25T13:05:42.218Z,6.70
2018-12-25T13:08:11.133Z,6.70
2018-12-25T13:10:40.334Z,6.70
2018-12-25T13:13:09.406Z,6.60
2018-12-25T13:15:38.415Z,6.60
2018-12-25T13:18:07.621Z,6.60
2018-12-25T13:20:36.867Z,6.60
2018-12-25T13:23:05.832Z,6.60
2018-12-25T13:25:34.766Z,6.50
2018-12-25T13:28:03.784Z,6.40
2018-12-25T13:30:33.062Z,6.40
2018-12-25T13:33:02.034Z,6.40
2018-12-25T13:35:31.207Z,6.30
2018-12-25T13:38:00.166Z,6.30
2018-12-25T13:40:29.402Z,6.30
2018-12-25T13:42:58.348Z,6.30
2018-12-25T13:45:27.687Z,6.30
2018-12-25T13:47:56.670Z,6.30
2018-12-25T13:50:25.687Z,6.30
2018-12-25T13:53:02.575Z,6.30
2018-12-25T13:55:25.177Z,6.40
2018-12-25T13:57:54.308Z,6.40
2018-12-25T14:00:23.277Z,6.30
2018-12-25T14:02:52.483Z,6.30
2018-12-25T14:05:21.734Z,6.30
2018-12-25T14:07:50.658Z,6.30
2018-12-25T14:10:19.861Z,6.30
2018-12-25T14:12:49.328Z,6.20
2018-12-25T14:15:18.238Z,6.20
2018-12-25T14:17:47.185Z,6.20
2018-12-25T14:20:16.238Z,6.10
2018-12-25T14:22:45.167Z,6.10
2018-12-25T14:25:14.091Z,6.10
2018-12-25T14:27:43.027Z,6.10
2018-12-25T14:30:12.016Z,6.10
2018-12-25T14:32:41.020Z,6.10
2018-12-25T14:35:09.963Z,6.00
2018-12-25T14:37:39.219Z,6.00
2018-12-25T14:40:08.728Z,6.00
2018-12-25T14:42:37.936Z,6.10
2018-12-25T14:45:07.499Z,6.00
2018-12-25T14:47:36.431Z,6.00
2018-12-25T14:50:06.231Z,6.00
2018-12-25T14:52:35.234Z,6.00
2018-12-25T14:55:04.315Z,6.00
2018-12-25T14:57:33.446Z,6.00
2018-12-25T15:00:02.711Z,6.00
2018-12-25T15:02:31.710Z,6.00
2018-12-25T15:05:00.676Z,6.00
2018-12-25T15:07:29.698Z,6.00
2018-12-25T15:09:58.623Z,6.10
2018-12-25T15:12:27.518Z,6.10
2018-12-25T15:14:56.696Z,6.10
2018-12-25T15:17:25.618Z,6.10
2018-12-25T15:19:54.563Z,6.10
2018-12-25T15:22:23.492Z,6.00
2018-12-25T15:24:52.929Z,6.00
2018-12-25T15:27:21.850Z,6.00
2018-12-25T15:29:50.738Z,6.00
2018-12-25T15:32:19.756Z,6.00
2018-12-25T15:34:49.795Z,6.00
2018-12-25T15:37:18.818Z,6.00
2018-12-25T15:39:47.787Z,6.00
2018-12-25T15:42:16.994Z,6.00
2018-12-25T15:44:45.950Z,6.00
2018-12-25T15:47:14.884Z,6.00
2018-12-25T15:49:43.839Z,6.00
2018-12-25T15:52:12.774Z,6.10
2018-12-25T15:54:41.762Z,6.10
2018-12-25T15:57:11.437Z,6.10
2018-12-25T15:59:40.867Z,6.10
2018-12-25T16:02:09.798Z,6.10
2018-12-25T16:04:39.091Z,6.10
2018-12-25T16:07:08.116Z,6.10
2018-12-25T16:09:37.175Z,6.10
2018-12-25T16:12:07.262Z,6.10
2018-12-25T16:14:36.488Z,6.10
2018-12-25T16:17:05.951Z,6.10
2018-12-25T16:19:34.914Z,6.10
2018-12-25T16:22:03.858Z,6.10
2018-12-25T16:24:32.838Z,6.20
2018-12-25T16:27:01.892Z,6.20
2018-12-25T16:29:30.866Z,6.10
2018-12-25T16:32:00.174Z,6.10
2018-12-25T16:34:29.503Z,6.20
2018-12-25T16:36:58.473Z,6.10
2018-12-25T16:39:27.391Z,6.20
2018-12-25T16:41:56.459Z,6.10
2018-12-25T16:44:26.228Z,6.10
2018-12-25T16:46:55.466Z,6.10
2018-12-25T16:49:24.699Z,6.10
2018-12-25T16:51:53.946Z,6.10
2018-12-25T16:54:22.994Z,6.10
2018-12-25T16:56:52.093Z,6.10
2018-12-25T16:59:21.155Z,6.20
2018-12-25T17:01:50.119Z,6.10
2018-12-25T17:04:19.373Z,6.10
2018-12-25T17:06:48.854Z,6.10
2018-12-25T17:09:17.788Z,6.20
2018-12-25T17:11:47.081Z,6.20
2018-12-25T17:14:16.013Z,6.10
2018-12-25T17:16:45.144Z,6.10
2018-12-25T17:19:14.343Z,6.10
2018-12-25T17:21:43.643Z,6.10
2018-12-25T17:24:12.562Z,6.10
2018-12-25T17:26:42.215Z,6.10
2018-12-25T17:29:11.403Z,6.20
2018-12-25T17:31:40.918Z,6.20
2018-12-25T17:34:11.099Z,6.10
2018-12-25T17:36:40.201Z,6.10
2018-12-25T17:39:09.131Z,6.10
2018-12-25T17:41:38.104Z,6.20
2018-12-25T17:44:07.309Z,6.10
2018-12-25T17:46:37.064Z,6.10
2018-12-25T17:49:07.300Z,6.10
2018-12-25T17:51:36.334Z,6.20
2018-12-25T17:54:10.734Z,6.20
2018-12-25T17:56:37.904Z,6.20
2018-12-25T17:59:07.100Z,6.20
2018-12-25T18:01:36.083Z,6.20
2018-12-25T18:04:05.469Z,6.10
2018-12-25T18:06:34.487Z,6.20
2018-12-25T18:09:04.802Z,6.20
2018-12-25T18:11:33.775Z,6.20
2018-12-25T18:14:02.960Z,6.20
2018-12-25T18:16:32.067Z,6.20
2018-12-25T18:19:01.050Z,6.10
2018-12-25T18:21:30.069Z,6.10
2018-12-25T18:23:59.024Z,6.20
2018-12-25T18:26:28.030Z,6.10
2018-12-25T18:28:57.402Z,6.10
2018-12-25T18:31:26.745Z,6.20
2018-12-25T18:33:55.802Z,6.20
2018-12-25T18:36:25.035Z,6.20
2018-12-25T18:38:53.973Z,6.10
2018-12-25T18:41:23.338Z,6.10
2018-12-25T18:43:54.409Z,6.20
2018-12-25T18:46:23.355Z,6.20
2018-12-25T18:48:52.302Z,6.20
2018-12-25T18:51:21.236Z,6.20
2018-12-25T18:53:50.258Z,6.20
2018-12-25T18:56:19.192Z,6.20
2018-12-25T18:58:48.150Z,6.10
2018-12-25T19:01:17.078Z,6.20
2018-12-25T19:03:46.051Z,6.10
2018-12-25T19:06:14.997Z,6.10
2018-12-25T19:08:43.984Z,6.10
2018-12-25T19:11:16.235Z,6.10
2018-12-25T19:13:45.255Z,6.10
2018-12-25T19:16:14.198Z,6.10
2018-12-25T19:18:43.420Z,6.10
2018-12-25T19:21:12.387Z,6.10
2018-12-25T19:23:52.940Z,6.10
2018-12-25T19:26:22.166Z,6.10
2018-12-25T19:28:51.086Z,6.10
2018-12-25T19:31:19.950Z,6.10
2018-12-25T19:33:48.822Z,6.10
2018-12-25T19:36:17.838Z,6.10
2018-12-25T19:38:47.030Z,6.10
2018-12-25T19:41:16.271Z,6.10
2018-12-25T19:43:45.223Z,6.10
2018-12-25T19:46:14.259Z,6.10
2018-12-25T19:48:43.336Z,6.20
2018-12-25T19:51:12.443Z,6.10
2018-12-25T19:53:41.766Z,6.10
2018-12-25T19:56:10.867Z,6.10
2018-12-25T19:58:39.850Z,6.10
2018-12-25T20:01:08.870Z,6.10
2018-12-25T20:03:49.143Z,6.10
2018-12-25T20:07:02.853Z,6.10
2018-12-25T20:09:59.511Z,6.10
2018-12-25T20:13:11.936Z,6.10
2018-12-25T20:16:30.438Z,6.10
2018-12-25T20:19:15.220Z,6.10
2018-12-25T20:22:06.450Z,6.10
2018-12-25T20:25:18.842Z,6.10
2018-12-25T20:28:19.150Z,6.10
2018-12-25T20:31:28.233Z,6.00
2018-12-25T20:34:24.533Z,6.10
2018-12-25T20:37:36.694Z,6.00
2018-12-25T20:40:51.598Z,6.00
2018-12-25T20:44:03.701Z,6.00
2018-12-25T20:47:08.720Z,6.00
2018-12-25T20:50:17.262Z,6.00
2018-12-25T20:53:27.491Z,6.00
2018-12-25T20:56:41.604Z,6.00
2018-12-25T21:00:04.071Z,6.00
2018-12-25T21:03:38.867Z,6.00
2018-12-25T21:06:47.446Z,6.00
2018-12-25T21:10:02.987Z,6.10
2018-12-25T21:13:09.234Z,6.00
2018-12-25T21:16:15.754Z,6.00
2018-12-25T21:19:38.436Z,6.00
2018-12-25T21:22:29.941Z,6.00
2018-12-25T21:25:35.114Z,6.00
2018-12-25T21:28:05.846Z,6.00
2018-12-25T21:30:34.973Z,6.00
2018-12-25T21:33:04.074Z,6.10
2018-12-25T21:35:33.428Z,6.00
2018-12-25T21:38:02.602Z,6.00
2018-12-25T21:40:32.623Z,6.10
2018-12-25T21:43:02.358Z,6.10
2018-12-25T21:45:31.465Z,6.10
2018-12-25T21:48:01.964Z,6.10
2018-12-25T21:50:31.181Z,6.10
2018-12-25T21:53:00.963Z,6.10
2018-12-25T21:55:30.060Z,6.10
2018-12-25T21:57:59.719Z,6.10
2018-12-25T22:00:32.157Z,6.10
2018-12-25T22:03:02.280Z,6.20
2018-12-25T22:05:32.196Z,6.20
2018-12-25T22:08:01.147Z,6.20
2018-12-25T22:10:30.223Z,6.20
2018-12-25T22:12:59.255Z,6.20
2018-12-25T22:15:29.290Z,6.20
2018-12-25T22:17:58.220Z,6.20
2018-12-25T22:20:29.878Z,6.20
2018-12-25T22:22:59.162Z,6.20
2018-12-25T22:25:28.427Z,6.30
2018-12-25T22:27:57.608Z,6.30
2018-12-25T22:30:26.530Z,6.30
2018-12-25T22:32:56.187Z,6.30
2018-12-25T22:35:25.152Z,6.30
2018-12-25T22:37:54.199Z,6.40
2018-12-25T22:40:23.387Z,6.40
2018-12-25T22:42:52.631Z,6.40
2018-12-25T22:45:21.627Z,6.40
2018-12-25T22:47:50.560Z,6.40
2018-12-25T22:50:19.751Z,6.40
2018-12-25T22:52:48.758Z,6.50
2018-12-25T22:55:17.638Z,6.50
2018-12-25T22:57:46.588Z,6.50
2018-12-25T23:00:16.526Z,6.60
2018-12-25T23:02:45.772Z,6.60
2018-12-25T23:05:15.152Z,6.60
2018-12-25T23:07:44.411Z,6.60
2018-12-25T23:10:13.357Z,6.60
2018-12-25T23:12:42.323Z,6.50
2018-12-25T23:15:11.302Z,6.50
2018-12-25T23:17:40.243Z,6.60
2018-12-25T23:20:10.519Z,6.50
2018-12-25T23:22:39.478Z,6.50
2018-12-25T23:25:08.409Z,6.50
2018-12-25T23:27:37.635Z,6.60
2018-12-25T23:30:07.802Z,6.60
2018-12-25T23:32:36.719Z,6.60
2018-12-25T23:35:05.817Z,6.60
2018-12-25T23:37:34.809Z,6.60
2018-12-25T23:40:05.789Z,6.60
2018-12-25T23:42:34.428Z,6.60
2018-12-25T23:45:03.532Z,6.60
2018-12-25T23:47:32.484Z,6.60
2018-12-25T23:50:01.449Z,6.50
2018-12-25T23:52:31.967Z,6.60
2018-12-25T23:55:01.195Z,6.60
2018-12-25T23:57:30.146Z,6.60
2018-12-25T23:59:59.428Z,6.60
